Time;durP1;ratioP1;P1;durP2;ratioP2;P2;SDS_P1;SDS_P2;PMS_P1;PMS_P2;Temp;Humidity;BMP_temperature;BMP_pressure;BME280_temperature;BME280_humidity;BME280_pressure;Samples;Min_cycle;Max_cycle;Signal;HPM_P1;HPM_P2
2022/03/27 00:01:27;;;;;;;0.00;0.00;;;;;;;;;;5109597;28;20504;-76
2022/03/27 00:03:57;;;;;;;0.00;0.00;;;;;;;;;;5100562;28;20040;-76
2022/03/27 00:06:33;;;;;;;0.00;0.00;;;;;;;;;;5109435;28;20816;-76
2022/03/27 00:09:04;;;;;;;0.00;0.00;;;;;;;;;;5109497;28;20048;-75
2022/03/27 00:11:34;;;;;;;0.00;0.00;;;;;;;;;;5109079;28;20118;-75
2022/03/27 00:14:05;;;;;;;0.00;0.00;;;;;;;;;;5109447;28;20505;-76
2022/03/27 00:16:36;;;;;;;0.00;0.00;;;;;;;;;;5109231;28;20039;-76
2022/03/27 00:19:06;;;;;;;0.00;0.00;;;;;;;;;;5109346;28;20494;-76
2022/03/27 00:21:38;;;;;;;0.00;0.00;;;;;;;;;;5098626;28;20052;-75
2022/03/27 00:24:09;;;;;;;0.03;0.03;;;;;;;;;;5073732;28;20040;-76
2022/03/27 00:26:40;;;;;;;0.00;0.00;;;;;;;;;;5098133;28;20095;-76
2022/03/27 00:29:10;;;;;;;0.00;0.00;;;;;;;;;;5089628;28;20044;-77
2022/03/27 00:31:40;;;;;;;0.00;0.00;;;;;;;;;;5070702;28;20048;-77
2022/03/27 00:34:11;;;;;;;0.00;0.00;;;;;;;;;;5093378;28;20039;-76
2022/03/27 00:36:43;;;;;;;0.00;0.00;;;;;;;;;;5097566;28;20044;-76
2022/03/27 00:39:13;;;;;;;0.00;0.00;;;;;;;;;;5097289;28;20036;-75
2022/03/27 00:41:43;;;;;;;0.00;0.00;;;;;;;;;;5097788;28;20055;-75
2022/03/27 00:44:13;;;;;;;0.00;0.00;;;;;;;;;;5081223;28;20058;-75
2022/03/27 00:46:43;;;;;;;0.00;0.00;;;;;;;;;;5098349;28;20399;-76
2022/03/27 00:49:13;;;;;;;0.00;0.00;;;;;;;;;;5096107;28;20048;-76
2022/03/27 00:51:43;;;;;;;0.00;0.00;;;;;;;;;;5102223;28;20050;-76
2022/03/27 00:54:14;;;;;;;0.00;0.00;;;;;;;;;;5108284;28;20055;-76
2022/03/27 00:56:44;;;;;;;0.00;0.00;;;;;;;;;;5109232;28;20418;-76
2022/03/27 00:59:14;;;;;;;0.35;0.35;;;;;;;;;;5107419;28;20059;-76
2022/03/27 01:01:44;;;;;;;0.00;0.00;;;;;;;;;;5107059;28;20429;-76
2022/03/27 01:04:14;;;;;;;0.00;0.00;;;;;;;;;;5108551;28;20060;-76
2022/03/27 01:06:45;;;;;;;0.00;0.00;;;;;;;;;;5108568;28;20047;-77
2022/03/27 01:09:38;;;;;;;0.00;0.00;;;;;;;;;;5108246;28;20498;-77
2022/03/27 01:12:23;;;;;;;0.00;0.00;;;;;;;;;;5108820;28;20047;-77
2022/03/27 01:14:54;;;;;;;0.00;0.00;;;;;;;;;;5089701;28;20056;-77
2022/03/27 01:17:26;;;;;;;0.00;0.00;;;;;;;;;;5108981;28;20051;-77
2022/03/27 01:19:57;;;;;;;0.00;0.00;;;;;;;;;;5108243;28;20052;-79
2022/03/27 01:22:28;;;;;;;0.00;0.00;;;;;;;;;;5108239;28;20051;-77
2022/03/27 01:24:58;;;;;;;0.00;0.00;;;;;;;;;;5090763;28;20548;-77
2022/03/27 01:27:30;;;;;;;0.00;0.00;;;;;;;;;;5089373;28;20394;-77
2022/03/27 01:30:00;;;;;;;0.00;0.00;;;;;;;;;;5107448;28;20066;-76
2022/03/27 01:32:30;;;;;;;0.00;0.00;;;;;;;;;;5122750;27;20055;-78
2022/03/27 01:35:00;;;;;;;0.00;0.00;;;;;;;;;;5106744;28;20498;-78
2022/03/27 01:37:30;;;;;;;0.00;0.00;;;;;;;;;;5106600;28;20044;-79
2022/03/27 01:40:00;;;;;;;0.10;0.10;;;;;;;;;;5089471;28;20055;-76
2022/03/27 01:42:30;;;;;;;0.00;0.00;;;;;;;;;;5106985;28;20054;-78
2022/03/27 01:45:00;;;;;;;0.00;0.00;;;;;;;;;;5108059;28;20044;-78
2022/03/27 01:47:30;;;;;;;0.00;0.00;;;;;;;;;;5106770;28;20044;-79
2022/03/27 01:50:02;;;;;;;0.00;0.00;;;;;;;;;;5106916;28;20432;-79
2022/03/27 01:52:33;;;;;;;0.00;0.00;;;;;;;;;;5089052;28;20058;-79
2022/03/27 01:55:06;;;;;;;;;;;;;;;;;;5107615;28;20418;-78
2022/03/27 01:57:36;;;;;;;0.00;0.00;;;;;;;;;;5087742;28;20413;-78
2022/03/27 02:00:09;;;;;;;0.00;0.00;;;;;;;;;;5106836;28;20392;-78
2022/03/27 02:02:42;;;;;;;0.00;0.00;;;;;;;;;;5093419;28;20052;-78
2022/03/27 02:05:13;;;;;;;0.00;0.00;;;;;;;;;;5107153;28;20039;-78
2022/03/27 02:07:47;;;;;;;0.00;0.00;;;;;;;;;;5107611;28;20401;-79
2022/03/27 02:10:18;;;;;;;0.00;0.00;;;;;;;;;;5088292;28;20047;-79
2022/03/27 02:12:48;;;;;;;0.00;0.00;;;;;;;;;;5107468;28;20437;-78
2022/03/27 02:15:18;;;;;;;0.00;0.00;;;;;;;;;;5107455;28;20040;-78
2022/03/27 02:17:48;;;;;;;0.00;0.00;;;;;;;;;;5072004;28;20055;-78
2022/03/27 02:20:18;;;;;;;0.00;0.00;;;;;;;;;;5106585;28;20055;-79
2022/03/27 02:22:48;;;;;;;0.00;0.00;;;;;;;;;;5107333;28;20046;-78
2022/03/27 02:25:18;;;;;;;0.00;0.00;;;;;;;;;;5106477;28;20535;-79
2022/03/27 02:27:48;;;;;;;0.00;0.00;;;;;;;;;;5106738;28;20055;-78
2022/03/27 02:30:20;;;;;;;0.00;0.00;;;;;;;;;;5088237;28;20051;-78
2022/03/27 02:32:50;;;;;;;0.00;0.00;;;;;;;;;;5107040;28;20048;-78
2022/03/27 02:35:20;;;;;;;0.00;0.00;;;;;;;;;;5107423;28;20040;-79
2022/03/27 02:37:50;;;;;;;0.00;0.00;;;;;;;;;;5107038;28;20325;-79
2022/03/27 02:40:20;;;;;;;0.00;0.00;;;;;;;;;;5106753;28;20043;-79
2022/03/27 02:42:50;;;;;;;0.00;0.00;;;;;;;;;;5107167;28;20405;-78
2022/03/27 02:45:20;;;;;;;0.00;0.00;;;;;;;;;;5106079;28;20082;-78
2022/03/27 02:47:50;;;;;;;0.00;0.00;;;;;;;;;;5106475;28;20051;-78
2022/03/27 02:50:20;;;;;;;0.00;0.00;;;;;;;;;;5106321;28;20047;-78
2022/03/27 02:52:50;;;;;;;0.00;0.00;;;;;;;;;;5106732;28;20059;-79
2022/03/27 02:55:21;;;;;;;0.00;0.00;;;;;;;;;;5106044;28;20055;-78
2022/03/27 02:57:52;;;;;;;0.00;0.00;;;;;;;;;;5105435;28;20441;-79
2022/03/27 03:00:23;;;;;;;0.00;0.00;;;;;;;;;;5106455;28;20062;-75
2022/03/27 03:02:54;;;;;;;0.00;0.00;;;;;;;;;;5106376;28;20513;-76
2022/03/27 03:05:25;;;;;;;0.00;0.00;;;;;;;;;;5106887;28;20040;-78
2022/03/27 03:07:55;;;;;;;0.00;0.00;;;;;;;;;;5105505;28;20062;-79
2022/03/27 03:10:26;;;;;;;0.00;0.00;;;;;;;;;;5087793;28;20056;-79
2022/03/27 03:12:56;;;;;;;0.00;0.00;;;;;;;;;;5088182;28;20063;-78
2022/03/27 03:15:26;;;;;;;0.00;0.00;;;;;;;;;;5106431;28;20051;-78
2022/03/27 03:17:57;;;;;;;0.00;0.00;;;;;;;;;;5106341;28;20039;-78
2022/03/27 03:20:27;;;;;;;0.00;0.00;;;;;;;;;;5087273;28;20060;-78
2022/03/27 03:22:57;;;;;;;0.00;0.00;;;;;;;;;;5106005;28;20047;-78
2022/03/27 03:25:29;;;;;;;0.00;0.00;;;;;;;;;;5105456;28;20410;-79
2022/03/27 03:28:16;;;;;;;0.00;0.00;;;;;;;;;;5087365;28;20127;-78
2022/03/27 03:30:46;;;;;;;0.00;0.00;;;;;;;;;;5088604;28;20051;-78
2022/03/27 03:33:16;;;;;;;0.00;0.00;;;;;;;;;;5105406;28;20044;-78
2022/03/27 03:35:46;;;;;;;0.00;0.00;;;;;;;;;;5105397;28;20461;-78
2022/03/27 03:38:16;;;;;;;0.00;0.00;;;;;;;;;;5105905;28;20044;-78
2022/03/27 03:40:46;;;;;;;0.00;0.00;;;;;;;;;;5105830;28;20062;-78
2022/03/27 03:43:19;;;;;;;0.00;0.00;;;;;;;;;;5105826;28;20505;-78
2022/03/27 03:45:49;;;;;;;0.00;0.00;;;;;;;;;;5105938;28;20062;-78
2022/03/27 03:48:19;;;;;;;0.00;0.00;;;;;;;;;;5086666;28;20051;-78
2022/03/27 03:50:49;;;;;;;0.00;0.00;;;;;;;;;;5088531;28;20066;-78
2022/03/27 03:53:19;;;;;;;0.00;0.00;;;;;;;;;;5091184;28;20129;-78
2022/03/27 03:55:48;;;;;;;0.00;0.00;;;;;;;;;;5110739;28;20488;-78
2022/03/27 03:58:18;;;;;;;0.00;0.00;;;;;;;;;;5109551;28;20047;-79
2022/03/27 04:00:50;;;;;;;0.00;0.00;;;;;;;;;;5109654;28;20039;-78
2022/03/27 04:03:21;;;;;;;0.00;0.00;;;;;;;;;;5109601;28;20043;-78
2022/03/27 04:05:51;;;;;;;0.00;0.00;;;;;;;;;;5109813;28;20078;-78
2022/03/27 04:08:21;;;;;;;0.00;0.00;;;;;;;;;;5109375;28;20066;-78
2022/03/27 04:10:51;;;;;;;0.00;0.00;;;;;;;;;;5109457;28;20498;-78
2022/03/27 04:13:21;;;;;;;0.00;0.00;;;;;;;;;;5108590;28;20058;-78
2022/03/27 04:15:51;;;;;;;0.00;0.00;;;;;;;;;;5109751;28;20035;-78
2022/03/27 04:18:25;;;;;;;0.00;0.00;;;;;;;;;;5109438;28;20050;-78
2022/03/27 04:20:55;;;;;;;0.00;0.00;;;;;;;;;;5109586;28;20048;-79
2022/03/27 04:23:26;;;;;;;0.00;0.00;;;;;;;;;;5109663;28;20070;-78
2022/03/27 04:25:55;;;;;;;0.00;0.00;;;;;;;;;;5109161;28;20508;-78
2022/03/27 04:28:25;;;;;;;0.00;0.00;;;;;;;;;;5109105;28;20043;-78
2022/03/27 04:30:55;;;;;;;0.00;0.00;;;;;;;;;;5109193;28;20058;-78
2022/03/27 04:33:25;;;;;;;0.00;0.00;;;;;;;;;;5109031;28;20046;-78
2022/03/27 04:35:55;;;;;;;0.00;0.00;;;;;;;;;;5108999;28;20058;-78
2022/03/27 04:38:25;;;;;;;0.00;0.00;;;;;;;;;;5090960;28;20055;-78
2022/03/27 04:40:55;;;;;;;0.00;0.00;;;;;;;;;;5108672;28;20048;-78
2022/03/27 04:43:26;;;;;;;0.00;0.00;;;;;;;;;;5109068;28;20055;-78
2022/03/27 04:45:55;;;;;;;0.00;0.00;;;;;;;;;;5108668;28;20048;-78
2022/03/27 04:48:25;;;;;;;0.00;0.00;;;;;;;;;;5109426;28;20048;-78
2022/03/27 04:50:56;;;;;;;0.00;0.00;;;;;;;;;;5089856;28;20051;-78
2022/03/27 04:53:25;;;;;;;0.00;0.00;;;;;;;;;;5089957;28;20062;-78
2022/03/27 04:55:56;;;;;;;0.00;0.00;;;;;;;;;;5108229;28;20040;-78
2022/03/27 04:58:25;;;;;;;0.00;0.00;;;;;;;;;;5090578;28;20047;-78
2022/03/27 05:00:56;;;;;;;0.00;0.00;;;;;;;;;;5107976;28;20066;-78
2022/03/27 05:03:26;;;;;;;;;;;;;;;;;;5109324;28;20051;-78
2022/03/27 05:05:57;;;;;;;0.00;0.00;;;;;;;;;;5109082;28;20400;-78
2022/03/27 05:08:27;;;;;;;0.00;0.00;;;;;;;;;;5108905;28;20521;-78
2022/03/27 05:10:57;;;;;;;0.00;0.00;;;;;;;;;;5090359;28;20054;-78
2022/03/27 05:13:27;;;;;;;0.00;0.00;;;;;;;;;;5108638;28;20043;-78
2022/03/27 05:15:57;;;;;;;0.00;0.00;;;;;;;;;;5108214;28;20040;-78
2022/03/27 05:18:26;;;;;;;0.00;0.00;;;;;;;;;;5107736;28;20497;-78
2022/03/27 05:20:56;;;;;;;0.00;0.00;;;;;;;;;;5089693;28;20491;-78
2022/03/27 05:23:26;;;;;;;0.00;0.00;;;;;;;;;;5107743;28;20047;-78
2022/03/27 05:25:56;;;;;;;0.00;0.00;;;;;;;;;;5089217;28;20047;-78
2022/03/27 05:28:26;;;;;;;0.00;0.00;;;;;;;;;;5107473;28;21165;-78
2022/03/27 05:30:56;;;;;;;0.00;0.00;;;;;;;;;;5108321;28;20048;-78
2022/03/27 05:33:26;;;;;;;0.00;0.00;;;;;;;;;;5108084;28;20409;-78
2022/03/27 05:35:56;;;;;;;0.00;0.00;;;;;;;;;;5108086;28;20044;-78
2022/03/27 05:38:26;;;;;;;0.00;0.00;;;;;;;;;;5090969;28;20062;-78
2022/03/27 05:40:56;;;;;;;0.00;0.00;;;;;;;;;;5089712;28;20043;-76
2022/03/27 05:43:25;;;;;;;0.00;0.00;;;;;;;;;;5120881;28;20042;-76
2022/03/27 05:45:55;;;;;;;0.00;0.00;;;;;;;;;;5106822;28;20040;-75
2022/03/27 05:48:25;;;;;;;0.00;0.00;;;;;;;;;;5132473;28;20032;-75
2022/03/27 05:50:56;;;;;;;0.00;0.00;;;;;;;;;;5134395;28;20034;-75
2022/03/27 05:53:26;;;;;;;0.00;0.00;;;;;;;;;;5123536;28;20035;-76
2022/03/27 05:55:57;;;;;;;0.00;0.00;;;;;;;;;;5102812;28;20067;-75
2022/03/27 05:58:27;;;;;;;0.00;0.00;;;;;;;;;;5113271;28;20063;-77
2022/03/27 06:00:57;;;;;;;0.00;0.00;;;;;;;;;;5108620;28;20061;-77
2022/03/27 06:03:28;;;;;;;0.00;0.00;;;;;;;;;;5090544;28;20073;-77
2022/03/27 06:05:58;;;;;;;0.00;0.00;;;;;;;;;;5107537;28;20058;-77
2022/03/27 06:08:28;;;;;;;0.00;0.00;;;;;;;;;;5124252;27;20584;-77
2022/03/27 06:10:58;;;;;;;0.00;0.00;;;;;;;;;;5106688;28;20074;-77
2022/03/27 06:13:28;;;;;;;0.00;0.00;;;;;;;;;;5088539;28;20060;-77
2022/03/27 06:15:58;;;;;;;0.00;0.00;;;;;;;;;;5106637;28;20047;-77
2022/03/27 06:18:28;;;;;;;0.00;0.00;;;;;;;;;;5108048;28;20044;-77
2022/03/27 06:20:58;;;;;;;0.00;0.00;;;;;;;;;;5107477;28;20059;-80
2022/03/27 06:23:27;;;;;;;0.00;0.00;;;;;;;;;;5089222;28;20051;-77
2022/03/27 06:25:57;;;;;;;0.00;0.00;;;;;;;;;;5089389;28;20047;-77
2022/03/27 06:28:27;;;;;;;0.00;0.00;;;;;;;;;;5107044;28;20054;-77
2022/03/27 06:30:57;;;;;;;0.00;0.00;;;;;;;;;;5107012;28;20058;-77
2022/03/27 06:33:27;;;;;;;0.00;0.00;;;;;;;;;;5088671;28;20048;-77
2022/03/27 06:35:58;;;;;;;0.00;0.00;;;;;;;;;;5089079;28;20125;-76
2022/03/27 06:38:28;;;;;;;;;;;;;;;;;;5088556;28;20430;-77
2022/03/27 06:40:58;;;;;;;0.00;0.00;;;;;;;;;;5106880;28;19930;-77
2022/03/27 06:43:28;;;;;;;0.00;0.00;;;;;;;;;;5088162;28;20052;-77
2022/03/27 06:45:58;;;;;;;0.00;0.00;;;;;;;;;;5089226;28;20525;-76
2022/03/27 06:48:28;;;;;;;0.00;0.00;;;;;;;;;;5106413;28;20448;-77
2022/03/27 06:50:58;;;;;;;0.00;0.00;;;;;;;;;;5106410;28;20052;-77
2022/03/27 06:53:28;;;;;;;0.00;0.00;;;;;;;;;;5107166;28;20047;-77
2022/03/27 06:55:58;;;;;;;0.00;0.00;;;;;;;;;;5090066;28;20414;-77
2022/03/27 06:58:28;;;;;;;0.00;0.00;;;;;;;;;;5106997;28;20048;-77
2022/03/27 07:03:47;;;;;;;0.00;0.00;;;;;;;;;;5106843;28;20051;-77
2022/03/27 07:06:17;;;;;;;0.00;0.00;;;;;;;;;;5106023;28;20079;-77
2022/03/27 07:08:47;;;;;;;0.00;0.00;;;;;;;;;;5106672;28;20048;-77
2022/03/27 07:11:17;;;;;;;0.00;0.00;;;;;;;;;;5106667;28;20320;-77
2022/03/27 07:13:47;;;;;;;0.00;0.00;;;;;;;;;;5088320;28;20059;-77
2022/03/27 07:16:17;;;;;;;0.00;0.00;;;;;;;;;;5088158;28;20054;-77
2022/03/27 07:18:49;;;;;;;0.00;0.00;;;;;;;;;;5087798;28;20058;-76
2022/03/27 07:21:20;;;;;;;0.00;0.00;;;;;;;;;;5107089;28;20458;-77
2022/03/27 07:23:50;;;;;;;0.00;0.00;;;;;;;;;;5106228;28;20051;-77
2022/03/27 07:26:20;;;;;;;0.00;0.00;;;;;;;;;;5106368;28;20035;-77
2022/03/27 07:28:50;;;;;;;0.00;0.00;;;;;;;;;;5110353;28;20058;-77
2022/03/27 07:31:20;;;;;;;0.00;0.00;;;;;;;;;;5091465;28;20065;-77
2022/03/27 07:33:50;;;;;;;0.00;0.00;;;;;;;;;;5110342;28;20051;-77
2022/03/27 07:36:20;;;;;;;0.00;0.00;;;;;;;;;;5110107;28;20039;-76
2022/03/27 07:38:50;;;;;;;0.00;0.00;;;;;;;;;;5109630;28;20425;-77
2022/03/27 07:41:20;;;;;;;0.00;0.00;;;;;;;;;;5110044;28;20054;-76
2022/03/27 07:43:50;;;;;;;0.00;0.00;;;;;;;;;;5091183;28;20071;-76
2022/03/27 07:46:20;;;;;;;0.00;0.00;;;;;;;;;;5109918;28;20055;-77
2022/03/27 07:48:50;;;;;;;0.00;0.00;;;;;;;;;;5110231;28;20047;-77
2022/03/27 07:51:24;;;;;;;0.00;0.00;;;;;;;;;;5109631;28;20050;-76
2022/03/27 07:53:54;;;;;;;0.00;0.00;;;;;;;;;;5109945;28;20066;-77
2022/03/27 07:56:25;;;;;;;0.00;0.00;;;;;;;;;;5110284;28;20528;-80
2022/03/27 07:58:55;;;;;;;0.00;0.00;;;;;;;;;;5110264;28;20051;-77
2022/03/27 08:01:26;;;;;;;0.00;0.00;;;;;;;;;;5109270;28;20051;-77
2022/03/27 08:03:56;;;;;;;0.00;0.00;;;;;;;;;;5091823;28;20546;-77
2022/03/27 08:06:27;;;;;;;0.00;0.00;;;;;;;;;;5109983;28;21121;-76
2022/03/27 08:08:57;;;;;;;0.00;0.00;;;;;;;;;;5091477;28;20051;-76
2022/03/27 08:11:27;;;;;;;0.00;0.00;;;;;;;;;;5109278;28;20043;-77
2022/03/27 08:13:57;;;;;;;0.00;0.00;;;;;;;;;;5110418;28;20055;-77
2022/03/27 08:16:27;;;;;;;0.00;0.00;;;;;;;;;;5109624;28;20051;-77
2022/03/27 08:18:58;;;;;;;0.00;0.00;;;;;;;;;;5090591;28;20058;-77
2022/03/27 08:21:28;;;;;;;0.00;0.00;;;;;;;;;;5109416;28;20047;-76
2022/03/27 08:24:00;;;;;;;0.00;0.00;;;;;;;;;;5090553;28;20058;-77
2022/03/27 08:29:18;;;;;;;0.00;0.00;;;;;;;;;;5109208;28;20058;-76
2022/03/27 08:31:48;;;;;;;0.00;0.00;;;;;;;;;;5109128;28;20047;-77
2022/03/27 08:34:19;;;;;;;0.00;0.00;;;;;;;;;;5109422;28;20047;-77
2022/03/27 08:36:50;;;;;;;0.00;0.00;;;;;;;;;;5108912;28;20040;-76
2022/03/27 08:39:20;;;;;;;0.00;0.00;;;;;;;;;;5109110;28;20046;-76
2022/03/27 08:41:54;;;;;;;0.00;0.00;;;;;;;;;;5090599;28;20039;-76
2022/03/27 08:44:26;;;;;;;0.00;0.00;;;;;;;;;;5108323;28;20601;-77
2022/03/27 08:46:59;;;;;;;0.00;0.00;;;;;;;;;;5109033;28;20051;-76
2022/03/27 08:50:04;;;;;;;0.00;0.00;;;;;;;;;;5108773;28;20391;-77
2022/03/27 08:52:49;;;;;;;0.00;0.00;;;;;;;;;;5080299;28;20055;-77
2022/03/27 08:55:45;;;;;;;0.00;0.00;;;;;;;;;;5108980;28;20046;-76
2022/03/27 08:58:15;;;;;;;0.00;0.00;;;;;;;;;;5073215;28;20051;-76
2022/03/27 09:00:45;;;;;;;0.00;0.00;;;;;;;;;;5108512;28;20417;-77
2022/03/27 09:03:16;;;;;;;0.00;0.00;;;;;;;;;;5108345;28;20441;-77
2022/03/27 09:05:46;;;;;;;0.00;0.00;;;;;;;;;;5109189;28;20395;-77
2022/03/27 09:08:16;;;;;;;0.00;0.00;;;;;;;;;;5108824;28;20421;-76
2022/03/27 09:10:46;;;;;;;0.00;0.00;;;;;;;;;;5091108;28;20047;-77
2022/03/27 09:13:18;;;;;;;0.00;0.00;;;;;;;;;;5106863;28;20048;-77
2022/03/27 09:16:01;;;;;;;0.00;0.00;;;;;;;;;;5108439;28;20067;-77
2022/03/27 09:18:47;;;;;;;0.00;0.00;;;;;;;;;;5089366;28;20062;-76
2022/03/27 09:21:20;;;;;;;0.00;0.00;;;;;;;;;;5108348;28;20409;-76
2022/03/27 09:23:59;;;;;;;0.00;0.00;;;;;;;;;;5090400;28;20058;-76
2022/03/27 09:26:32;;;;;;;0.00;0.00;;;;;;;;;;5089341;28;20059;-76
2022/03/27 09:29:10;;;;;;;0.00;0.00;;;;;;;;;;5108413;28;20055;-76
2022/03/27 09:31:40;;;;;;;0.10;0.10;;;;;;;;;;5108383;28;20389;-79
2022/03/27 09:34:10;;;;;;;0.00;0.00;;;;;;;;;;5107115;28;20086;-76
2022/03/27 09:36:45;;;;;;;0.00;0.00;;;;;;;;;;5089238;28;20047;-76
2022/03/27 09:39:22;;;;;;;0.00;0.00;;;;;;;;;;5089249;28;20071;-77
2022/03/27 09:41:54;;;;;;;0.00;0.00;;;;;;;;;;5073093;28;20538;-77
2022/03/27 09:44:39;;;;;;;0.00;0.00;;;;;;;;;;5107734;28;20074;-77
2022/03/27 09:47:11;;;;;;;0.00;0.00;;;;;;;;;;5088888;28;20055;-77
2022/03/27 09:49:46;;;;;;;0.00;0.00;;;;;;;;;;5106796;28;20520;-76
2022/03/27 09:52:19;;;;;;;0.00;0.00;;;;;;;;;;5088513;28;20537;-76
2022/03/27 09:54:51;;;;;;;0.00;0.00;;;;;;;;;;5106905;28;20054;-77
2022/03/27 09:57:25;;;;;;;0.00;0.00;;;;;;;;;;5108168;28;20067;-76
2022/03/27 10:00:12;;;;;;;0.00;0.00;;;;;;;;;;5107669;28;20051;-77
2022/03/27 10:02:46;;;;;;;0.00;0.00;;;;;;;;;;5109072;28;20043;-77
2022/03/27 10:05:19;;;;;;;0.00;0.00;;;;;;;;;;5107142;28;20050;-77
2022/03/27 10:07:56;;;;;;;0.00;0.00;;;;;;;;;;5122793;27;20556;-77
2022/03/27 10:10:28;;;;;;;0.00;0.00;;;;;;;;;;5088362;28;20047;-77
2022/03/27 10:12:59;;;;;;;0.00;0.00;;;;;;;;;;5087901;28;20064;-76
2022/03/27 10:15:30;;;;;;;0.00;0.00;;;;;;;;;;5106900;28;20051;-77
2022/03/27 10:18:10;;;;;;;0.00;0.00;;;;;;;;;;5106147;28;20048;-77
2022/03/27 10:20:41;;;;;;;0.00;0.00;;;;;;;;;;5089212;28;20052;-78
2022/03/27 10:23:18;;;;;;;0.00;0.00;;;;;;;;;;5106825;28;20050;-77
2022/03/27 10:26:01;;;;;;;0.00;0.00;;;;;;;;;;5107471;28;20043;-77
2022/03/27 10:28:38;;;;;;;0.00;0.00;;;;;;;;;;5089067;28;20526;-77
2022/03/27 10:31:08;;;;;;;;;;;;;;;;;;5089919;28;20054;-77
2022/03/27 10:33:39;;;;;;;0.00;0.00;;;;;;;;;;5089200;28;19923;-77
2022/03/27 10:36:42;;;;;;;0.00;0.00;;;;;;;;;;5088298;28;20055;-77
2022/03/27 10:39:25;;;;;;;0.00;0.00;;;;;;;;;;5088827;28;20058;-77
2022/03/27 10:42:19;;;;;;;0.00;0.00;;;;;;;;;;5107394;28;20054;-77
2022/03/27 10:45:22;;;;;;;0.00;0.00;;;;;;;;;;5106564;28;20056;-77
2022/03/27 10:48:14;;;;;;;0.00;0.00;;;;;;;;;;5064838;28;20055;-77
2022/03/27 10:50:53;;;;;;;;;;;;;;;;;;5106863;28;20047;-77
2022/03/27 10:53:26;;;;;;;0.00;0.00;;;;;;;;;;5106101;28;19924;-78
2022/03/27 10:55:57;;;;;;;0.00;0.00;;;;;;;;;;5106280;28;20043;-77
2022/03/27 10:58:31;;;;;;;0.00;0.00;;;;;;;;;;5106513;28;20391;-77
2022/03/27 11:01:09;;;;;;;0.00;0.00;;;;;;;;;;5107944;28;20576;-77
2022/03/27 11:04:04;;;;;;;0.00;0.00;;;;;;;;;;5110844;28;20585;-77
2022/03/27 11:06:43;;;;;;;0.00;0.00;;;;;;;;;;5111044;28;20410;-77
2022/03/27 11:09:38;;;;;;;0.00;0.00;;;;;;;;;;5110870;28;20381;-77
2022/03/27 11:12:27;;;;;;;0.00;0.00;;;;;;;;;;5110263;28;20362;-78
2022/03/27 11:15:05;;;;;;;0.00;0.00;;;;;;;;;;5110654;28;20405;-77
2022/03/27 11:17:47;;;;;;;0.00;0.00;;;;;;;;;;5110566;28;20047;-78
2022/03/27 11:20:26;;;;;;;0.00;0.00;;;;;;;;;;5110455;28;20410;-78
2022/03/27 11:23:00;;;;;;;0.00;0.00;;;;;;;;;;5110425;28;20039;-78
2022/03/27 11:25:41;;;;;;;0.00;0.00;;;;;;;;;;5110608;28;20052;-77
2022/03/27 11:28:17;;;;;;;0.00;0.00;;;;;;;;;;5091866;28;20055;-78
2022/03/27 11:30:50;;;;;;;0.00;0.00;;;;;;;;;;5091140;28;20480;-78
2022/03/27 11:33:26;;;;;;;0.00;0.00;;;;;;;;;;5110321;28;20051;-78
2022/03/27 11:36:07;;;;;;;0.00;0.00;;;;;;;;;;5110485;28;20043;-78
2022/03/27 11:38:58;;;;;;;0.00;0.00;;;;;;;;;;5110864;28;20402;-78
2022/03/27 11:41:34;;;;;;;;;;;;;;;;;;5091759;28;20047;-77
2022/03/27 11:47:33;;;;;;;0.00;0.00;;;;;;;;;;5091635;28;20055;-80
2022/03/27 11:50:04;;;;;;;0.00;0.00;;;;;;;;;;5110344;28;20058;-77
2022/03/27 11:52:35;;;;;;;0.00;0.00;;;;;;;;;;5091701;28;20059;-79
2022/03/27 11:55:09;;;;;;;;;;;;;;;;;;5110527;28;20047;-78
2022/03/27 11:57:57;;;;;;;0.00;0.00;;;;;;;;;;5109642;28;19932;-78
2022/03/27 12:00:40;;;;;;;0.00;0.00;;;;;;;;;;5109355;28;20044;-78
2022/03/27 12:03:21;;;;;;;0.00;0.00;;;;;;;;;;5109464;28;20055;-80
2022/03/27 12:05:53;;;;;;;0.00;0.00;;;;;;;;;;5087863;28;20522;-79
2022/03/27 12:08:36;;;;;;;0.00;0.00;;;;;;;;;;5090121;28;20055;-79
2022/03/27 12:11:08;;;;;;;0.00;0.00;;;;;;;;;;5090094;28;20387;-75
2022/03/27 12:13:43;;;;;;;0.00;0.00;;;;;;;;;;5109646;28;20050;-77
2022/03/27 12:16:22;;;;;;;0.00;0.00;;;;;;;;;;5090744;28;20062;-75
2022/03/27 12:18:53;;;;;;;0.00;0.00;;;;;;;;;;5109180;28;20529;-75
2022/03/27 12:21:24;;;;;;;0.00;0.00;;;;;;;;;;5109884;28;20048;-74
2022/03/27 12:24:03;;;;;;;0.00;0.00;;;;;;;;;;5090460;28;20056;-76
2022/03/27 12:29:42;;;;;;;0.00;0.00;;;;;;;;;;5109991;28;20039;-74
2022/03/27 12:32:27;;;;;;;0.00;0.00;;;;;;;;;;5109666;28;20050;-76
2022/03/27 12:35:02;;;;;;;0.10;0.10;;;;;;;;;;5109215;28;20521;-75
2022/03/27 12:37:33;;;;;;;0.00;0.00;;;;;;;;;;5109416;28;20042;-76
2022/03/27 12:40:06;;;;;;;0.00;0.00;;;;;;;;;;5109281;28;20525;-77
2022/03/27 12:42:47;;;;;;;0.00;0.00;;;;;;;;;;5090161;28;20051;-77
2022/03/27 12:45:23;;;;;;;0.00;0.00;;;;;;;;;;5109160;28;20066;-76
2022/03/27 12:48:02;;;;;;;0.13;0.13;;;;;;;;;;5109087;28;20042;-74
2022/03/27 12:50:41;;;;;;;0.10;0.00;;;;;;;;;;5109178;28;20044;-75
2022/03/27 12:53:29;;;;;;;0.00;0.00;;;;;;;;;;5109274;28;20042;-74
2022/03/27 12:56:04;;;;;;;0.00;0.00;;;;;;;;;;5090346;28;20047;-74
2022/03/27 12:58:42;;;;;;;0.10;0.10;;;;;;;;;;5108936;28;20047;-73
2022/03/27 13:01:18;;;;;;;0.00;0.00;;;;;;;;;;5091464;28;20040;-77
2022/03/27 13:04:08;;;;;;;0.00;0.00;;;;;;;;;;5107862;28;20047;-74
2022/03/27 13:06:51;;;;;;;0.00;0.00;;;;;;;;;;5107746;28;20050;-76
2022/03/27 13:09:23;;;;;;;0.00;0.00;;;;;;;;;;5072774;28;20056;-74
2022/03/27 13:11:53;;;;;;;0.20;0.20;;;;;;;;;;5107288;28;20051;-75
2022/03/27 13:14:23;;;;;;;0.00;0.00;;;;;;;;;;5108481;28;20039;-75
2022/03/27 13:16:58;;;;;;;0.00;0.00;;;;;;;;;;5107821;28;20510;-74
2022/03/27 13:19:43;;;;;;;0.00;0.00;;;;;;;;;;5109077;28;20043;-76
2022/03/27 13:22:14;;;;;;;0.00;0.00;;;;;;;;;;5108709;28;20533;-76
2022/03/27 13:24:48;;;;;;;0.00;0.00;;;;;;;;;;5107372;28;20415;-74
2022/03/27 13:27:20;;;;;;;0.00;0.00;;;;;;;;;;5108405;28;20047;-75
2022/03/27 13:29:50;;;;;;;0.00;0.00;;;;;;;;;;5108574;28;20051;-73
2022/03/27 13:32:19;;;;;;;0.00;0.00;;;;;;;;;;5108229;28;20524;-74
2022/03/27 13:34:49;;;;;;;0.00;0.00;;;;;;;;;;5109653;28;20600;-74
2022/03/27 13:37:19;;;;;;;0.00;0.00;;;;;;;;;;5108989;28;20052;-75
2022/03/27 13:39:49;;;;;;;0.00;0.00;;;;;;;;;;5109109;28;20498;-77
2022/03/27 13:45:08;;;;;;;0.00;0.00;;;;;;;;;;5108326;28;20062;-76
2022/03/27 13:47:38;;;;;;;0.10;0.10;;;;;;;;;;5090594;28;20039;-74
2022/03/27 13:50:08;;;;;;;0.00;0.00;;;;;;;;;;5108625;28;20062;-74
2022/03/27 13:52:38;;;;;;;0.00;0.00;;;;;;;;;;5108037;28;20044;-74
2022/03/27 13:55:08;;;;;;;0.00;0.00;;;;;;;;;;5109065;28;20043;-78
2022/03/27 13:57:38;;;;;;;0.00;0.00;;;;;;;;;;5092187;28;20054;-74
2022/03/27 14:00:08;;;;;;;2.05;0.40;;;;;;;;;;5109032;28;20066;-75
2022/03/27 14:02:38;;;;;;;0.00;0.00;;;;;;;;;;5108100;28;20078;-78
2022/03/27 14:05:09;;;;;;;0.00;0.00;;;;;;;;;;5108881;28;20055;-75
2022/03/27 14:07:39;;;;;;;0.00;0.00;;;;;;;;;;5091603;28;20540;-76
2022/03/27 14:10:09;;;;;;;0.00;0.00;;;;;;;;;;5109473;28;20043;-78
2022/03/27 14:12:39;;;;;;;0.10;0.10;;;;;;;;;;5108549;28;20296;-75
2022/03/27 14:15:09;;;;;;;0.00;0.00;;;;;;;;;;5109640;28;20044;-75
2022/03/27 14:17:40;;;;;;;0.00;0.00;;;;;;;;;;5107495;28;20078;-75
2022/03/27 14:20:10;;;;;;;0.30;0.13;;;;;;;;;;5107835;28;20051;-76
2022/03/27 14:22:40;;;;;;;0.00;0.00;;;;;;;;;;5108392;28;20300;-77
2022/03/27 14:25:13;;;;;;;0.40;0.40;;;;;;;;;;5107920;28;20043;-76
2022/03/27 14:27:46;;;;;;;0.00;0.00;;;;;;;;;;5109328;28;20446;-76
2022/03/27 14:30:16;;;;;;;0.00;0.00;;;;;;;;;;5109663;28;20066;-76
2022/03/27 14:32:47;;;;;;;0.00;0.00;;;;;;;;;;5109843;28;20044;-78
2022/03/27 14:35:17;;;;;;;0.00;0.00;;;;;;;;;;5109431;28;20047;-77
2022/03/27 14:37:47;;;;;;;0.00;0.00;;;;;;;;;;5109842;28;20040;-75
2022/03/27 14:40:18;;;;;;;0.00;0.00;;;;;;;;;;5108410;28;20047;-76
2022/03/27 14:42:47;;;;;;;0.00;0.00;;;;;;;;;;5109359;28;20043;-76
2022/03/27 14:45:17;;;;;;;0.00;0.00;;;;;;;;;;5091832;28;20525;-77
2022/03/27 14:47:50;;;;;;;0.00;0.00;;;;;;;;;;5109218;28;20134;-76
2022/03/27 14:50:22;;;;;;;0.00;0.00;;;;;;;;;;5109715;28;20044;-75
2022/03/27 14:52:52;;;;;;;0.00;0.00;;;;;;;;;;5090513;28;20051;-77
2022/03/27 14:58:14;;;;;;;0.00;0.00;;;;;;;;;;5109132;28;20044;-76
2022/03/27 15:00:45;;;;;;;0.05;0.05;;;;;;;;;;5107222;28;20051;-76
2022/03/27 15:03:15;;;;;;;0.00;0.00;;;;;;;;;;5106980;28;20054;-76
2022/03/27 15:05:45;;;;;;;0.55;0.10;;;;;;;;;;5106512;28;20313;-78
2022/03/27 15:08:15;;;;;;;0.20;0.10;;;;;;;;;;5107201;28;20044;-75
2022/03/27 15:10:45;;;;;;;0.00;0.00;;;;;;;;;;5107703;28;20051;-75
2022/03/27 15:13:16;;;;;;;0.00;0.00;;;;;;;;;;5109091;28;20277;-78
2022/03/27 15:15:45;;;;;;;0.00;0.00;;;;;;;;;;5090880;28;20043;-75
2022/03/27 15:18:15;;;;;;;0.00;0.00;;;;;;;;;;5108236;28;20047;-76
2022/03/27 15:20:45;;;;;;;0.15;0.10;;;;;;;;;;5107055;28;20050;-77
2022/03/27 15:23:16;;;;;;;0.00;0.00;;;;;;;;;;5107927;28;20067;-74
2022/03/27 15:25:46;;;;;;;0.15;0.15;;;;;;;;;;5108201;28;20039;-76
2022/03/27 15:28:16;;;;;;;0.00;0.00;;;;;;;;;;5109496;28;20043;-75
2022/03/27 15:30:46;;;;;;;1.63;0.63;;;;;;;;;;5108713;28;20051;-75
2022/03/27 15:33:16;;;;;;;13.85;0.40;;;;;;;;;;5109130;28;20046;-74
2022/03/27 15:35:46;;;;;;;0.00;0.00;;;;;;;;;;5115337;28;20043;-74